createdAt,value
2017-10-24T00:00:37.357Z,2.57
2017-10-24T00:04:03.757Z,2.20
2017-10-24T00:07:36.226Z,2.10
2017-10-24T00:14:34.378Z,2.83
2017-10-24T00:18:13.544Z,1.80
2017-10-24T00:21:43.761Z,3.17
2017-10-24T00:25:13.366Z,2.30
2017-10-24T00:28:43.766Z,1.70
2017-10-24T00:32:09.353Z,1.70
2017-10-24T00:35:37.945Z,2.03
2017-10-24T00:39:03.272Z,1.97
2017-10-24T00:42:28.525Z,2.70
2017-10-24T00:45:56.038Z,3.03
2017-10-24T00:49:21.886Z,2.93
2017-10-24T00:52:52.145Z,2.20
2017-10-24T00:56:17.723Z,1.83
2017-10-24T00:59:43.056Z,4.23
2017-10-24T01:03:09.411Z,1.40
2017-10-24T01:06:36.093Z,1.73
2017-10-24T01:10:01.796Z,1.60
2017-10-24T01:13:28.808Z,2.33
2017-10-24T01:16:54.293Z,2.30
2017-10-24T01:20:21.420Z,2.53
2017-10-24T01:23:46.762Z,2.20
2017-10-24T01:27:13.386Z,3.57
2017-10-24T01:30:39.470Z,2.73
2017-10-24T01:34:05.506Z,1.43
2017-10-24T01:37:31.902Z,1.70
2017-10-24T01:40:58.081Z,5.03
2017-10-24T01:44:23.746Z,1.63
2017-10-24T01:47:51.101Z,3.13
2017-10-24T01:51:16.957Z,2.10
2017-10-24T01:54:43.165Z,1.40
2017-10-24T01:58:08.773Z,2.60
2017-10-24T02:01:34.996Z,2.40
2017-10-24T02:05:00.549Z,1.30
2017-10-24T02:08:26.530Z,1.67
2017-10-24T02:11:53.650Z,1.47
2017-10-24T02:15:19.269Z,1.50
2017-10-24T02:18:44.786Z,1.80
2017-10-24T02:22:11.078Z,1.30
2017-10-24T02:25:36.414Z,2.30
2017-10-24T02:29:02.095Z,1.10
2017-10-24T02:32:27.557Z,2.07
2017-10-24T02:35:53.528Z,1.57
2017-10-24T02:39:19.037Z,1.60
2017-10-24T02:42:44.537Z,2.10
2017-10-24T02:46:09.903Z,1.43
2017-10-24T02:49:35.518Z,1.50
2017-10-24T02:53:00.986Z,2.20
2017-10-24T02:56:26.707Z,1.27
2017-10-24T02:59:52.559Z,1.10
2017-10-24T03:03:18.102Z,1.90
2017-10-24T03:06:43.424Z,1.13
2017-10-24T03:10:09.289Z,2.00
2017-10-24T03:13:34.814Z,1.93
2017-10-24T03:17:00.447Z,1.30
2017-10-24T03:20:25.936Z,0.83
2017-10-24T03:23:53.058Z,4.20
2017-10-24T03:27:37.868Z,1.00
2017-10-24T03:31:06.655Z,1.17
2017-10-24T03:34:31.949Z,1.53
2017-10-24T03:37:58.109Z,0.90
2017-10-24T03:41:23.683Z,0.90
2017-10-24T03:44:49.250Z,1.20
2017-10-24T03:48:15.468Z,2.10
2017-10-24T03:51:41.134Z,2.50
2017-10-24T03:55:07.546Z,3.63
2017-10-24T03:58:32.875Z,1.30
2017-10-24T04:01:58.291Z,1.27
2017-10-24T04:05:24.867Z,1.00
2017-10-24T04:08:50.333Z,0.80
2017-10-24T04:12:16.072Z,1.03
2017-10-24T04:15:41.837Z,1.30
2017-10-24T04:19:07.141Z,2.10
2017-10-24T04:22:32.809Z,0.80
2017-10-24T04:25:59.124Z,1.10
2017-10-24T04:29:24.409Z,0.90
2017-10-24T04:32:49.878Z,1.10
2017-10-24T04:36:15.317Z,2.00
2017-10-24T04:39:41.677Z,1.27
2017-10-24T04:43:07.049Z,0.70
2017-10-24T04:46:32.297Z,0.70
2017-10-24T04:49:57.706Z,1.27
2017-10-24T04:53:23.325Z,0.70
2017-10-24T04:56:48.806Z,0.90
2017-10-24T05:00:14.294Z,0.70
2017-10-24T05:03:40.401Z,0.97
2017-10-24T05:07:06.590Z,1.23
2017-10-24T05:10:31.904Z,0.70
2017-10-24T05:13:57.262Z,0.70
2017-10-24T05:17:23.340Z,0.60
2017-10-24T05:20:48.783Z,1.07
2017-10-24T05:24:14.200Z,2.73
2017-10-24T05:27:39.603Z,1.47
2017-10-24T05:31:05.223Z,1.50
2017-10-24T05:34:33.158Z,1.20
2017-10-24T05:37:59.584Z,2.20
2017-10-24T05:41:25.394Z,3.23
2017-10-24T05:44:50.857Z,1.73
2017-10-24T05:48:16.883Z,2.67
2017-10-24T05:51:42.227Z,4.97
2017-10-24T05:55:07.706Z,5.80
2017-10-24T05:58:33.055Z,6.13
2017-10-24T06:01:58.666Z,5.27
2017-10-24T06:05:24.261Z,11.03
2017-10-24T06:08:51.111Z,5.83
2017-10-24T06:12:17.311Z,6.23
2017-10-24T06:15:42.909Z,7.77
2017-10-24T06:19:08.303Z,6.50
2017-10-24T06:22:33.849Z,4.17
2017-10-24T06:25:59.368Z,7.30
2017-10-24T06:29:25.263Z,8.00
2017-10-24T06:32:51.022Z,6.73
2017-10-24T06:36:16.716Z,5.07
2017-10-24T06:39:41.941Z,10.20
2017-10-24T06:43:07.392Z,8.37
2017-10-24T06:46:32.990Z,6.43
2017-10-24T06:49:58.708Z,5.20
2017-10-24T06:53:24.149Z,4.83
2017-10-24T06:56:50.165Z,3.10
2017-10-24T07:00:15.688Z,3.73
2017-10-24T07:03:42.892Z,5.37
2017-10-24T07:07:21.104Z,5.60
2017-10-24T07:10:46.524Z,3.00
2017-10-24T07:14:12.309Z,9.40
2017-10-24T07:17:39.058Z,9.87
2017-10-24T07:21:04.689Z,10.80
2017-10-24T07:24:34.442Z,10.87
2017-10-24T07:28:04.223Z,10.90
2017-10-24T07:31:30.441Z,10.77
2017-10-24T07:34:55.996Z,11.70
2017-10-24T07:38:21.891Z,14.53
2017-10-24T07:41:49.050Z,9.50
2017-10-24T07:45:14.617Z,8.20
2017-10-24T07:48:40.012Z,7.43
2017-10-24T07:56:29.192Z,11.13
2017-10-24T07:59:54.938Z,11.73
2017-10-24T08:03:21.545Z,7.80
2017-10-24T08:06:47.000Z,8.47
2017-10-24T08:10:13.131Z,5.97
2017-10-24T08:13:39.310Z,8.37
2017-10-24T08:17:04.762Z,8.03
2017-10-24T08:20:31.144Z,8.60
2017-10-24T08:27:26.219Z,4.70
2017-10-24T08:30:52.051Z,3.60
2017-10-24T08:34:17.462Z,4.70
2017-10-24T08:37:49.953Z,7.50
2017-10-24T08:41:17.331Z,6.20
2017-10-24T08:44:43.639Z,8.57
2017-10-24T08:48:09.620Z,6.07
2017-10-24T08:51:35.932Z,8.10
2017-10-24T08:55:06.830Z,3.13
2017-10-24T08:58:32.582Z,4.97
2017-10-24T09:05:38.799Z,5.27
2017-10-24T09:09:10.205Z,7.70
2017-10-24T09:12:38.604Z,4.20
2017-10-24T09:16:13.043Z,6.57
2017-10-24T09:19:46.129Z,4.03
2017-10-24T09:23:15.772Z,9.50
2017-10-24T09:26:42.590Z,7.23
2017-10-24T09:30:08.056Z,7.20
2017-10-24T09:33:34.940Z,7.47
2017-10-24T09:37:00.463Z,5.93
2017-10-24T09:40:25.952Z,5.23
2017-10-24T09:43:53.710Z,5.50
2017-10-24T09:47:19.884Z,5.80
2017-10-24T09:50:53.605Z,5.47
2017-10-24T09:54:25.344Z,4.53
2017-10-24T09:57:55.067Z,7.50
2017-10-24T10:01:32.684Z,4.67
2017-10-24T10:05:00.308Z,3.40
2017-10-24T10:08:27.982Z,4.43
2017-10-24T10:11:54.998Z,4.87
2017-10-24T10:15:20.152Z,3.40
2017-10-24T10:18:53.581Z,3.57
2017-10-24T10:22:27.791Z,4.30
2017-10-24T10:25:54.060Z,5.53
2017-10-24T10:29:19.555Z,4.00
2017-10-24T10:32:45.490Z,3.70
2017-10-24T10:36:11.688Z,2.77
2017-10-24T10:39:36.929Z,3.10
2017-10-24T10:43:02.929Z,4.27
2017-10-24T10:46:28.291Z,2.03
2017-10-24T10:49:53.454Z,4.60
2017-10-24T11:07:20.462Z,3.80
2017-10-24T11:10:46.549Z,3.13
2017-10-24T11:14:12.760Z,1.83
2017-10-24T11:17:38.134Z,2.63
2017-10-24T11:21:09.804Z,3.20
2017-10-24T11:24:43.361Z,1.73
2017-10-24T11:28:11.986Z,3.73
2017-10-24T11:31:37.134Z,4.07
2017-10-24T11:35:02.663Z,1.80
2017-10-24T11:38:28.002Z,2.47
2017-10-24T11:41:53.141Z,1.50
2017-10-24T11:45:19.333Z,1.73
2017-10-24T11:48:44.819Z,2.10
2017-10-24T11:52:11.913Z,2.00
2017-10-24T11:59:12.246Z,2.17
2017-10-24T12:02:39.399Z,1.87
2017-10-24T12:06:06.461Z,2.30
2017-10-24T12:09:36.272Z,1.40
2017-10-24T12:13:04.221Z,1.87
2017-10-24T12:16:34.564Z,1.50
2017-10-24T12:20:00.491Z,1.47
2017-10-24T12:23:26.507Z,1.57
2017-10-24T12:26:52.141Z,1.97
2017-10-24T12:30:18.861Z,1.07
2017-10-24T12:33:44.694Z,1.33
2017-10-24T12:37:10.389Z,0.90
2017-10-24T12:40:35.764Z,1.47
2017-10-24T12:44:01.426Z,1.93
2017-10-24T12:47:27.213Z,1.87
2017-10-24T12:50:52.768Z,2.87
2017-10-24T12:54:18.491Z,1.27
2017-10-24T12:57:44.159Z,2.03
2017-10-24T13:01:10.991Z,1.80
2017-10-24T13:04:36.230Z,1.33
2017-10-24T13:08:17.857Z,1.63
2017-10-24T13:11:56.624Z,2.83
2017-10-24T13:15:22.262Z,0.77
2017-10-24T13:18:49.092Z,0.97
2017-10-24T13:22:14.271Z,1.60
2017-10-24T13:25:39.466Z,1.77
2017-10-24T13:29:04.936Z,1.30
2017-10-24T13:32:35.984Z,2.30
2017-10-24T13:36:01.570Z,2.50
2017-10-24T13:39:28.816Z,0.93
2017-10-24T13:43:05.783Z,0.90
2017-10-24T13:46:40.426Z,1.13
2017-10-24T13:50:07.514Z,1.53
2017-10-24T13:53:33.845Z,1.13
2017-10-24T13:57:03.944Z,1.33
2017-10-24T14:00:29.950Z,1.10
2017-10-24T14:03:57.821Z,1.20
2017-10-24T14:09:39.526Z,1.10
2017-10-24T14:13:10.890Z,2.07
2017-10-24T14:16:38.082Z,1.40
2017-10-24T14:20:09.670Z,2.10
2017-10-24T14:23:35.432Z,1.17
2017-10-24T14:27:02.648Z,1.40
2017-10-24T14:30:33.284Z,1.30
2017-10-24T14:33:58.720Z,1.20
2017-10-24T14:37:25.354Z,1.80
2017-10-24T14:40:53.193Z,2.03
2017-10-24T14:47:47.780Z,1.07
2017-10-24T14:51:27.447Z,2.27
2017-10-24T14:55:00.574Z,0.90
2017-10-24T14:58:27.301Z,1.10
2017-10-24T15:01:53.357Z,1.50
2017-10-24T15:05:18.863Z,1.60
2017-10-24T15:08:48.170Z,1.93
2017-10-24T15:12:13.425Z,1.00
2017-10-24T15:15:39.340Z,1.00
2017-10-24T15:19:04.554Z,1.70
2017-10-24T15:22:30.130Z,0.87
2017-10-24T15:25:56.589Z,3.53
2017-10-24T15:29:23.948Z,1.13
2017-10-24T15:32:51.944Z,1.03
2017-10-24T15:36:17.126Z,1.07
2017-10-24T15:39:46.849Z,1.33
2017-10-24T15:43:18.734Z,1.10
2017-10-24T15:46:44.954Z,1.60
2017-10-24T15:50:12.588Z,1.40
2017-10-24T15:53:43.594Z,1.83
2017-10-24T15:57:10.281Z,1.70
2017-10-24T16:00:38.543Z,1.07
2017-10-24T16:11:32.691Z,1.10
2017-10-24T16:15:01.149Z,2.17
2017-10-24T16:18:26.391Z,1.07
2017-10-24T16:21:52.149Z,0.83
2017-10-24T16:25:22.372Z,1.27
2017-10-24T16:28:49.476Z,1.17
2017-10-24T16:32:15.299Z,1.27
2017-10-24T16:35:41.226Z,1.63
2017-10-24T16:39:07.302Z,1.30
2017-10-24T16:42:33.018Z,0.80
2017-10-24T16:45:58.466Z,1.13
2017-10-24T16:49:25.304Z,1.30
2017-10-24T16:56:24.291Z,1.40
2017-10-24T16:59:51.453Z,0.93
2017-10-24T17:03:19.025Z,2.40
2017-10-24T17:06:46.447Z,1.40
2017-10-24T17:10:11.815Z,1.37
2017-10-24T17:13:38.904Z,2.63
2017-10-24T17:17:08.138Z,1.50
2017-10-24T17:20:37.286Z,1.30
2017-10-24T17:27:40.862Z,3.80
2017-10-24T17:31:08.938Z,1.47
2017-10-24T17:34:36.823Z,1.40
2017-10-24T17:38:05.469Z,1.53
2017-10-24T17:41:33.885Z,1.40
2017-10-24T17:45:01.742Z,1.80
2017-10-24T17:48:29.554Z,2.90
2017-10-24T17:51:56.527Z,1.27
2017-10-24T17:55:24.127Z,2.80
2017-10-24T17:59:01.158Z,1.40
2017-10-24T18:02:28.287Z,1.20
2017-10-24T18:05:54.931Z,1.33
2017-10-24T18:09:27.397Z,1.47
2017-10-24T18:12:58.886Z,1.53
2017-10-24T18:16:25.851Z,1.60
2017-10-24T18:19:52.181Z,2.03
2017-10-24T18:23:20.104Z,2.17
2017-10-24T18:26:47.151Z,1.83
2017-10-24T18:30:14.345Z,2.40
2017-10-24T18:33:41.684Z,2.00
2017-10-24T18:37:09.915Z,2.10
2017-10-24T18:40:38.262Z,2.00
2017-10-24T18:44:07.486Z,3.00
2017-10-24T18:47:34.041Z,6.83
2017-10-24T18:51:02.661Z,3.30
2017-10-24T18:54:34.416Z,2.20
2017-10-24T18:58:02.176Z,1.90
2017-10-24T19:01:31.392Z,2.60
2017-10-24T19:04:59.438Z,1.80
2017-10-24T19:08:29.139Z,2.43
2017-10-24T19:11:55.852Z,2.63
2017-10-24T19:15:22.189Z,2.83
2017-10-24T19:18:49.750Z,7.70
2017-10-24T19:22:20.591Z,3.47
2017-10-24T19:25:47.684Z,5.23
2017-10-24T19:29:16.378Z,2.93
2017-10-24T19:32:44.468Z,2.60
2017-10-24T19:36:10.830Z,2.67
2017-10-24T19:43:08.775Z,3.23
2017-10-24T19:46:36.103Z,2.43
2017-10-24T19:50:06.662Z,2.77
2017-10-24T19:53:34.989Z,2.27
2017-10-24T19:57:03.072Z,3.00
2017-10-24T20:00:30.296Z,2.10
2017-10-24T20:03:56.596Z,2.47
2017-10-24T20:07:24.196Z,2.57
2017-10-24T20:10:52.499Z,2.40
2017-10-24T20:14:20.024Z,2.70
2017-10-24T20:17:47.016Z,2.17
2017-10-24T20:21:15.755Z,2.27
2017-10-24T20:24:45.809Z,2.83
2017-10-24T20:28:13.678Z,4.53
2017-10-24T20:31:41.173Z,4.13
2017-10-24T20:35:07.632Z,2.03
2017-10-24T20:38:36.107Z,2.60
2017-10-24T20:42:03.419Z,2.90
2017-10-24T20:45:29.637Z,1.70
2017-10-24T20:48:57.007Z,2.63
2017-10-24T20:52:24.552Z,3.17
2017-10-24T20:55:50.601Z,5.80
2017-10-24T20:59:18.286Z,2.23
2017-10-24T21:02:45.646Z,2.17
2017-10-24T21:06:11.239Z,3.07
2017-10-24T21:09:42.241Z,2.93
2017-10-24T21:13:08.530Z,2.40
2017-10-24T21:16:35.234Z,2.10
2017-10-24T21:20:00.800Z,2.33
2017-10-24T21:23:26.650Z,2.17
2017-10-24T21:26:53.173Z,2.90
2017-10-24T21:30:19.218Z,2.17
2017-10-24T21:33:44.692Z,2.07
2017-10-24T21:37:10.145Z,2.60
2017-10-24T21:40:35.711Z,2.50
2017-10-24T21:44:01.134Z,2.10
2017-10-24T21:47:27.239Z,2.03
2017-10-24T21:50:52.651Z,1.97
2017-10-24T21:54:18.951Z,8.40
2017-10-24T21:57:44.527Z,1.77
2017-10-24T22:01:11.087Z,3.07
2017-10-24T22:04:36.598Z,2.37
2017-10-24T22:08:02.931Z,5.77
2017-10-24T22:11:28.513Z,2.73
2017-10-24T22:14:53.959Z,1.90
2017-10-24T22:18:19.384Z,2.63
2017-10-24T22:21:45.143Z,2.20
2017-10-24T22:25:10.498Z,1.93
2017-10-24T22:28:36.321Z,2.03
2017-10-24T22:32:01.714Z,2.03
2017-10-24T22:35:27.374Z,2.20
2017-10-24T22:38:53.603Z,2.30
2017-10-24T22:42:19.193Z,2.00
2017-10-24T22:45:44.545Z,2.57
2017-10-24T22:49:11.546Z,2.20
2017-10-24T22:52:36.977Z,2.07
2017-10-24T22:56:02.493Z,2.03
2017-10-24T22:59:27.921Z,3.43
2017-10-24T23:02:53.562Z,2.27
2017-10-24T23:06:19.002Z,2.10
2017-10-24T23:09:45.537Z,2.13
2017-10-24T23:13:11.089Z,4.50
2017-10-24T23:16:36.570Z,1.47
2017-10-24T23:20:02.461Z,1.60
2017-10-24T23:23:27.757Z,1.90
2017-10-24T23:26:53.086Z,2.37
2017-10-24T23:30:19.302Z,2.63
2017-10-24T23:33:44.926Z,2.97
2017-10-24T23:37:10.388Z,2.53
2017-10-24T23:40:36.198Z,2.17
2017-10-24T23:44:02.782Z,2.70
2017-10-24T23:47:28.276Z,2.27
2017-10-24T23:50:55.117Z,2.37
2017-10-24T23:54:20.525Z,1.80
2017-10-24T23:57:46.462Z,2.27
